createdAt,value
2022-12-28T00:01:52.814Z,81.02
2022-12-28T00:04:20.937Z,81.04
2022-12-28T00:06:50.853Z,80.37
2022-12-28T00:09:19.141Z,81.05
2022-12-28T00:11:47.061Z,81.15
2022-12-28T00:14:15.297Z,81.20
2022-12-28T00:16:44.085Z,82.51
2022-12-28T00:19:15.425Z,81.88
2022-12-28T00:21:45.037Z,80.96
2022-12-28T00:24:22.270Z,81.92
2022-12-28T00:26:50.840Z,82.12
2022-12-28T00:29:20.358Z,82.13
2022-12-28T00:31:48.663Z,82.43
2022-12-28T00:34:16.818Z,81.94
2022-12-28T00:37:08.300Z,81.59
2022-12-28T00:39:32.888Z,82.04
2022-12-28T00:42:00.776Z,81.68
2022-12-28T00:44:28.919Z,81.82
2022-12-28T00:46:56.760Z,81.89
2022-12-28T00:49:24.810Z,81.40
2022-12-28T00:51:54.142Z,81.90
2022-12-28T00:54:22.084Z,81.65
2022-12-28T00:56:50.252Z,81.34
2022-12-28T00:59:18.116Z,81.46
2022-12-28T01:01:46.173Z,81.06
2022-12-28T01:04:15.261Z,82.22
2022-12-28T01:06:43.243Z,82.16
2022-12-28T01:09:11.030Z,82.58
2022-12-28T01:11:39.004Z,81.77
2022-12-28T01:14:06.876Z,82.00
2022-12-28T01:16:36.562Z,81.95
2022-12-28T01:19:06.729Z,82.10
2022-12-28T01:21:36.482Z,84.52
2022-12-28T01:24:08.239Z,88.38
2022-12-28T01:26:36.343Z,90.63
2022-12-28T01:29:04.433Z,91.95
2022-12-28T01:31:35.268Z,91.23
2022-12-28T01:34:03.914Z,90.23
2022-12-28T01:36:35.127Z,89.01
2022-12-28T01:39:05.967Z,87.75
2022-12-28T01:41:38.427Z,87.39
2022-12-28T01:44:07.488Z,86.26
2022-12-28T01:46:42.772Z,85.98
2022-12-28T01:49:27.568Z,85.76
2022-12-28T01:52:26.761Z,85.59
2022-12-28T01:55:03.197Z,85.68
2022-12-28T01:57:46.148Z,85.37
2022-12-28T02:00:32.358Z,85.00
2022-12-28T02:03:07.795Z,85.46
2022-12-28T02:05:39.807Z,85.23
2022-12-28T02:08:46.841Z,84.96
2022-12-28T02:11:18.781Z,84.64
2022-12-28T02:13:49.378Z,84.45
2022-12-28T02:16:19.540Z,83.84
2022-12-28T02:18:48.732Z,83.57
2022-12-28T02:21:28.490Z,83.94
2022-12-28T02:24:34.865Z,84.08
2022-12-28T02:27:21.185Z,83.81
2022-12-28T02:30:09.244Z,83.29
2022-12-28T02:32:47.568Z,83.13
2022-12-28T02:35:34.362Z,83.21
2022-12-28T02:38:31.356Z,82.35
2022-12-28T02:41:09.042Z,82.97
2022-12-28T02:43:37.189Z,82.54
2022-12-28T02:46:36.776Z,83.01
2022-12-28T02:49:44.402Z,82.96
2022-12-28T02:52:39.578Z,82.30
2022-12-28T02:55:44.858Z,82.09
2022-12-28T03:00:25.675Z,81.98
2022-12-28T03:03:07.307Z,81.78
2022-12-28T03:06:00.998Z,81.62
2022-12-28T03:08:51.454Z,81.37
2022-12-28T03:11:44.727Z,81.80
2022-12-28T03:14:33.060Z,81.90
2022-12-28T03:17:21.767Z,81.87
2022-12-28T03:20:23.127Z,81.69
2022-12-28T03:23:11.691Z,81.16
2022-12-28T03:26:03.740Z,80.91
2022-12-28T03:29:01.044Z,81.24
2022-12-28T03:31:32.569Z,81.54
2022-12-28T03:34:07.367Z,82.05
2022-12-28T03:36:48.834Z,81.70
2022-12-28T03:39:35.954Z,81.56
2022-12-28T03:42:30.718Z,82.28
2022-12-28T03:45:06.817Z,82.42
2022-12-28T03:47:37.947Z,81.91
2022-12-28T03:50:06.581Z,82.03
2022-12-28T03:52:34.577Z,81.94
2022-12-28T03:55:06.343Z,82.04
2022-12-28T03:57:34.557Z,81.35
2022-12-28T04:00:05.202Z,81.49
2022-12-28T04:02:43.952Z,81.27
2022-12-28T04:05:12.644Z,81.10
2022-12-28T04:07:42.079Z,80.98
2022-12-28T04:10:11.624Z,81.06
2022-12-28T04:12:39.672Z,80.95
2022-12-28T04:15:20.701Z,80.97
2022-12-28T04:17:49.214Z,80.63
2022-12-28T04:20:17.866Z,80.17
2022-12-28T04:22:46.559Z,80.17
2022-12-28T04:25:15.211Z,81.39
2022-12-28T04:27:43.796Z,81.21
2022-12-28T04:30:30.091Z,80.91
2022-12-28T04:32:58.745Z,81.04
2022-12-28T04:35:26.657Z,81.24
2022-12-28T04:37:55.496Z,81.38
2022-12-28T04:40:23.389Z,81.54
2022-12-28T04:42:51.363Z,81.15
2022-12-28T04:45:22.142Z,80.96
2022-12-28T04:47:50.260Z,81.41
2022-12-28T04:50:18.139Z,81.16
2022-12-28T04:52:46.305Z,81.12
2022-12-28T04:55:32.016Z,81.12
2022-12-28T04:58:01.702Z,81.40
2022-12-28T05:00:29.681Z,81.85
2022-12-28T05:03:00.999Z,82.02
2022-12-28T05:05:30.155Z,82.23
2022-12-28T05:08:01.786Z,82.09
2022-12-28T05:10:30.391Z,81.83
2022-12-28T05:12:58.292Z,81.49
2022-12-28T05:15:26.262Z,80.64
2022-12-28T05:17:55.571Z,81.04
2022-12-28T05:20:23.617Z,80.75
2022-12-28T05:22:51.737Z,80.08
2022-12-28T05:25:19.799Z,80.12
2022-12-28T05:27:47.657Z,79.91
2022-12-28T05:30:15.668Z,79.69
2022-12-28T05:32:43.519Z,79.75
2022-12-28T05:35:11.447Z,79.30
2022-12-28T05:37:39.347Z,79.17
2022-12-28T05:40:08.171Z,79.01
2022-12-28T05:42:37.289Z,79.03
2022-12-28T05:45:05.676Z,78.85
2022-12-28T05:47:33.656Z,79.45
2022-12-28T05:50:01.511Z,79.59
2022-12-28T05:52:30.441Z,79.13
2022-12-28T05:54:58.399Z,78.94
2022-12-28T05:57:26.338Z,79.12
2022-12-28T05:59:54.218Z,79.00
2022-12-28T06:02:25.916Z,78.84
2022-12-28T06:04:54.587Z,78.37
2022-12-28T06:07:22.831Z,79.04
2022-12-28T06:09:50.816Z,79.44
2022-12-28T06:12:19.369Z,79.11
2022-12-28T06:14:47.230Z,78.69
2022-12-28T06:17:15.191Z,78.80
2022-12-28T06:19:43.197Z,78.83
2022-12-28T06:22:11.058Z,78.49
2022-12-28T06:24:39.180Z,78.44
2022-12-28T06:27:07.146Z,78.40
2022-12-28T06:29:35.307Z,78.18
2022-12-28T06:32:03.288Z,78.07
2022-12-28T06:34:31.307Z,78.50
2022-12-28T06:37:00.453Z,78.40
2022-12-28T06:39:29.401Z,78.20
2022-12-28T06:41:57.820Z,78.67
2022-12-28T06:44:25.831Z,79.93
2022-12-28T06:46:53.782Z,79.69
2022-12-28T06:49:21.904Z,79.02
2022-12-28T06:51:49.832Z,79.57
2022-12-28T06:54:17.850Z,79.30
2022-12-28T06:56:46.002Z,79.82
2022-12-28T06:59:14.009Z,79.01
2022-12-28T07:01:44.984Z,79.28
2022-12-28T07:04:13.493Z,78.59
2022-12-28T07:06:43.948Z,78.61
2022-12-28T07:09:16.419Z,78.45
2022-12-28T07:11:45.247Z,79.18
2022-12-28T07:14:13.178Z,79.85
2022-12-28T07:19:08.315Z,78.76
2022-12-28T07:21:39.111Z,78.94
2022-12-28T07:24:08.246Z,80.19
2022-12-28T07:26:37.855Z,79.52
2022-12-28T07:29:07.531Z,78.79
2022-12-28T07:31:44.119Z,78.71
2022-12-28T07:34:15.158Z,79.09
2022-12-28T07:36:44.076Z,79.87
2022-12-28T07:39:12.219Z,78.96
2022-12-28T07:41:40.337Z,78.88
2022-12-28T07:44:08.227Z,79.13
2022-12-28T07:46:38.320Z,79.64
2022-12-28T07:49:07.239Z,78.61
2022-12-28T07:51:37.105Z,78.66
2022-12-28T07:54:06.191Z,77.94
2022-12-28T07:59:04.142Z,77.40
2022-12-28T08:01:34.999Z,77.23
2022-12-28T08:04:06.231Z,77.97
2022-12-28T08:06:36.962Z,77.91
2022-12-28T08:09:06.549Z,77.13
2022-12-28T08:11:37.774Z,76.30
2022-12-28T08:14:07.523Z,76.48
2022-12-28T08:16:39.148Z,76.00
2022-12-28T08:19:08.257Z,74.94
2022-12-28T08:21:40.082Z,74.61
2022-12-28T08:24:09.428Z,74.23
2022-12-28T08:26:40.238Z,73.63
2022-12-28T08:29:12.985Z,72.58
2022-12-28T08:31:44.675Z,71.80
2022-12-28T08:34:23.560Z,71.68
2022-12-28T08:36:51.609Z,70.67
2022-12-28T08:39:19.709Z,70.35
2022-12-28T08:41:47.942Z,69.97
2022-12-28T08:44:18.989Z,68.78
2022-12-28T08:46:47.375Z,67.78
2022-12-28T08:49:15.493Z,67.99
2022-12-28T08:51:43.848Z,68.93
2022-12-28T08:54:14.036Z,68.00
2022-12-28T08:56:44.223Z,68.09
2022-12-28T08:59:17.978Z,68.59
2022-12-28T09:01:47.249Z,68.99
2022-12-28T09:04:18.352Z,69.02
2022-12-28T09:06:47.065Z,68.94
2022-12-28T09:09:17.658Z,69.76
2022-12-28T09:11:46.309Z,69.80
2022-12-28T09:14:23.213Z,69.22
2022-12-28T09:16:54.308Z,69.38
2022-12-28T09:19:25.817Z,69.15
2022-12-28T09:21:55.624Z,69.23
2022-12-28T09:24:23.821Z,69.21
2022-12-28T09:26:53.286Z,69.91
2022-12-28T09:29:22.048Z,68.75
2022-12-28T09:31:50.425Z,69.29
2022-12-28T09:34:36.591Z,69.56
2022-12-28T09:37:07.992Z,70.23
2022-12-28T09:39:36.754Z,69.21
2022-12-28T09:42:09.717Z,69.20
2022-12-28T09:44:50.527Z,68.13
2022-12-28T09:47:44.999Z,68.63
2022-12-28T09:50:16.485Z,66.88
2022-12-28T09:53:06.167Z,65.26
2022-12-28T09:55:38.436Z,67.07
2022-12-28T09:58:15.648Z,67.95
2022-12-28T10:00:54.438Z,68.24
2022-12-28T10:03:27.427Z,67.92
2022-12-28T10:05:58.276Z,64.85
2022-12-28T10:08:28.117Z,65.11
2022-12-28T10:11:00.474Z,62.02
2022-12-28T10:13:57.375Z,61.77
2022-12-28T10:16:29.771Z,62.36
2022-12-28T10:18:58.347Z,62.01
2022-12-28T10:21:32.949Z,58.98
2022-12-28T10:26:50.892Z,58.68
2022-12-28T10:29:22.061Z,58.48
2022-12-28T10:32:05.005Z,57.77
2022-12-28T10:34:35.471Z,58.26
2022-12-28T10:37:15.810Z,55.56
2022-12-28T10:40:02.116Z,54.04
2022-12-28T10:42:37.367Z,46.49
2022-12-28T10:45:20.506Z,42.86
2022-12-28T10:47:57.033Z,39.31
2022-12-28T10:50:44.014Z,39.90
2022-12-28T10:53:26.991Z,37.72
2022-12-28T10:56:15.055Z,37.36
2022-12-28T10:58:47.943Z,40.30
2022-12-28T11:01:18.245Z,42.06
2022-12-28T11:04:00.129Z,43.13
2022-12-28T11:07:00.563Z,43.19
2022-12-28T11:09:36.246Z,44.03
2022-12-28T11:12:24.429Z,46.04
2022-12-28T11:14:53.563Z,46.60
2022-12-28T11:17:34.614Z,46.97
2022-12-28T11:20:14.716Z,47.18
2022-12-28T11:22:42.963Z,48.84
2022-12-28T11:25:34.907Z,48.08
2022-12-28T11:28:14.119Z,49.19
2022-12-28T11:30:43.903Z,50.37
2022-12-28T11:33:35.837Z,49.20
2022-12-28T11:36:09.905Z,48.86
2022-12-28T11:38:39.201Z,48.62
2022-12-28T11:41:34.080Z,49.00
2022-12-28T11:44:04.893Z,50.05
2022-12-28T11:46:36.053Z,49.25
2022-12-28T11:49:23.968Z,49.48
2022-12-28T11:52:18.282Z,50.50
2022-12-28T11:55:24.694Z,49.00
2022-12-28T11:57:54.874Z,49.24
2022-12-28T12:00:24.179Z,50.39
2022-12-28T12:02:58.222Z,52.07
2022-12-28T12:05:38.836Z,51.91
2022-12-28T12:08:16.733Z,52.96
2022-12-28T12:10:46.663Z,51.04
2022-12-28T12:13:26.868Z,51.60
2022-12-28T12:16:17.622Z,49.93
2022-12-28T12:18:52.423Z,50.69
2022-12-28T12:21:30.178Z,53.19
2022-12-28T12:24:27.122Z,55.97
2022-12-28T12:27:11.790Z,56.98
2022-12-28T12:29:44.738Z,57.44
2022-12-28T12:32:25.785Z,58.08
2022-12-28T12:35:00.479Z,59.56
2022-12-28T12:37:52.659Z,59.69
2022-12-28T12:40:48.436Z,59.54
2022-12-28T12:43:41.366Z,59.70
2022-12-28T12:46:27.785Z,59.94
2022-12-28T12:49:14.277Z,60.22
2022-12-28T12:52:06.637Z,60.70
2022-12-28T12:55:02.132Z,61.20
2022-12-28T12:57:48.500Z,61.51
2022-12-28T13:00:22.608Z,61.60
2022-12-28T13:03:09.434Z,62.00
2022-12-28T13:05:42.033Z,61.64
2022-12-28T13:08:24.607Z,61.67
2022-12-28T13:10:54.812Z,60.89
2022-12-28T13:13:38.014Z,60.26
2022-12-28T13:16:17.495Z,60.14
2022-12-28T13:19:06.806Z,59.71
2022-12-28T13:21:51.062Z,59.52
2022-12-28T13:24:24.922Z,52.95
2022-12-28T13:26:54.712Z,52.32
2022-12-28T13:29:26.207Z,50.32
2022-12-28T13:31:56.015Z,51.32
2022-12-28T13:34:31.216Z,52.87
2022-12-28T13:37:00.558Z,57.09
2022-12-28T13:39:34.114Z,57.01
2022-12-28T13:42:14.477Z,56.61
2022-12-28T13:44:54.024Z,51.37
2022-12-28T13:47:24.788Z,49.70
2022-12-28T13:49:52.862Z,49.04
2022-12-28T13:52:32.995Z,51.74
2022-12-28T13:55:06.963Z,50.37
2022-12-28T13:57:47.448Z,51.05
2022-12-28T14:00:23.135Z,52.40
2022-12-28T14:02:55.696Z,51.61
2022-12-28T14:05:30.224Z,51.69
2022-12-28T14:08:00.057Z,54.00
2022-12-28T14:10:29.160Z,52.31
2022-12-28T14:12:59.000Z,52.89
2022-12-28T14:15:28.217Z,52.11
2022-12-28T14:17:57.043Z,52.42
2022-12-28T14:20:25.412Z,52.92
2022-12-28T14:22:53.984Z,52.96
2022-12-28T14:25:23.106Z,53.90
2022-12-28T14:28:27.937Z,54.58
2022-12-28T14:30:56.954Z,55.02
2022-12-28T14:33:28.318Z,55.72
2022-12-28T14:36:01.836Z,56.05
2022-12-28T14:38:45.603Z,56.88
2022-12-28T14:41:28.993Z,57.50
2022-12-28T14:44:01.201Z,58.14
2022-12-28T14:46:40.089Z,59.53
2022-12-28T14:49:30.156Z,59.40
2022-12-28T14:52:19.064Z,59.49
2022-12-28T14:54:48.813Z,61.24
2022-12-28T14:57:23.338Z,61.62
2022-12-28T15:00:01.218Z,62.83
2022-12-28T15:02:35.769Z,64.33
2022-12-28T15:05:04.272Z,64.06
2022-12-28T15:07:32.217Z,65.03
2022-12-28T15:10:01.940Z,65.06
2022-12-28T15:12:30.410Z,65.27
2022-12-28T15:14:58.998Z,66.03
2022-12-28T15:17:33.195Z,65.59
2022-12-28T15:20:02.223Z,65.66
2022-12-28T15:22:30.782Z,65.69
2022-12-28T15:24:59.467Z,66.30
2022-12-28T15:27:28.328Z,66.01
2022-12-28T15:30:05.659Z,66.46
2022-12-28T15:32:34.982Z,66.81
2022-12-28T15:35:03.843Z,65.63
2022-12-28T15:37:32.220Z,65.55
2022-12-28T15:40:00.627Z,67.18
2022-12-28T15:42:30.057Z,66.47
2022-12-28T15:44:59.816Z,66.20
2022-12-28T15:47:28.507Z,66.25
2022-12-28T15:49:59.869Z,65.96
2022-12-28T15:52:28.358Z,65.96
2022-12-28T15:54:56.700Z,65.80
2022-12-28T15:57:26.109Z,65.76
2022-12-28T15:59:55.252Z,66.13
2022-12-28T16:02:24.447Z,66.13
2022-12-28T16:04:53.395Z,65.98
2022-12-28T16:07:22.008Z,65.76
2022-12-28T16:09:50.481Z,66.36
2022-12-28T16:12:21.848Z,66.31
2022-12-28T16:14:50.345Z,66.28
2022-12-28T16:17:21.850Z,66.58
2022-12-28T16:19:50.382Z,66.84
2022-12-28T16:22:18.816Z,67.05
2022-12-28T16:24:48.969Z,66.76
2022-12-28T16:27:19.471Z,66.93
2022-12-28T16:29:52.735Z,66.83
2022-12-28T16:32:24.138Z,68.09
2022-12-28T16:34:55.131Z,68.52
2022-12-28T16:37:24.261Z,68.35
2022-12-28T16:39:53.946Z,68.34
2022-12-28T16:42:22.405Z,68.11
2022-12-28T16:44:51.252Z,68.99
2022-12-28T16:47:19.693Z,68.64
2022-12-28T16:49:48.386Z,69.20
2022-12-28T16:52:16.729Z,69.83
2022-12-28T16:54:45.319Z,69.67
2022-12-28T16:57:13.820Z,69.82
2022-12-28T16:59:42.232Z,69.96
2022-12-28T17:02:13.266Z,70.28
2022-12-28T17:04:42.154Z,70.75
2022-12-28T17:07:10.794Z,70.31
2022-12-28T17:09:43.042Z,70.85
2022-12-28T17:12:15.275Z,70.99
2022-12-28T17:14:43.624Z,71.03
2022-12-28T17:17:12.091Z,71.05
2022-12-28T17:19:40.443Z,70.36
2022-12-28T17:22:09.053Z,71.17
2022-12-28T17:24:37.914Z,71.33
2022-12-28T17:27:09.080Z,71.06
2022-12-28T17:29:39.480Z,71.36
2022-12-28T17:32:08.311Z,71.36
2022-12-28T17:34:37.199Z,71.64
2022-12-28T17:37:05.590Z,72.14
2022-12-28T17:39:39.551Z,72.36
2022-12-28T17:42:09.772Z,71.66
2022-12-28T17:44:38.734Z,71.90
2022-12-28T17:47:07.319Z,73.31
2022-12-28T17:49:36.059Z,73.16
2022-12-28T17:52:04.396Z,73.10
2022-12-28T17:54:33.408Z,73.52
2022-12-28T17:57:01.962Z,73.53
2022-12-28T17:59:30.838Z,73.61
2022-12-28T18:02:02.185Z,73.91
2022-12-28T18:04:31.585Z,73.26
2022-12-28T18:07:00.258Z,73.90
2022-12-28T18:09:28.975Z,73.28
2022-12-28T18:11:57.504Z,74.32
2022-12-28T18:14:26.946Z,74.12
2022-12-28T18:16:56.055Z,73.93
2022-12-28T18:19:24.620Z,74.02
2022-12-28T18:21:53.088Z,74.08
2022-12-28T18:24:21.989Z,74.03
2022-12-28T18:26:50.906Z,73.40
2022-12-28T18:29:19.368Z,73.71
2022-12-28T18:31:47.908Z,73.66
2022-12-28T18:34:17.643Z,74.20
2022-12-28T18:36:46.254Z,73.44
2022-12-28T18:39:14.986Z,73.09
2022-12-28T18:41:43.536Z,73.06
2022-12-28T18:44:11.992Z,73.43
2022-12-28T18:46:40.551Z,73.94
2022-12-28T18:49:09.095Z,74.32
2022-12-28T18:51:37.713Z,74.52
2022-12-28T18:54:06.561Z,74.18
2022-12-28T18:56:35.217Z,75.17
2022-12-28T18:59:03.847Z,75.00
2022-12-28T19:02:05.178Z,75.84
2022-12-28T19:04:21.844Z,75.65
2022-12-28T19:06:50.426Z,75.91
2022-12-28T19:09:18.620Z,75.89
2022-12-28T19:11:47.339Z,76.06
2022-12-28T19:14:16.584Z,76.19
2022-12-28T19:16:45.450Z,76.46
2022-12-28T19:19:14.383Z,76.16
2022-12-28T19:21:43.663Z,75.72
2022-12-28T19:24:19.711Z,76.01
2022-12-28T19:26:48.476Z,76.05
2022-12-28T19:29:16.943Z,75.44
2022-12-28T19:31:45.519Z,76.43
2022-12-28T19:34:14.178Z,76.46
2022-12-28T19:36:42.562Z,77.41
2022-12-28T19:39:11.706Z,77.36
2022-12-28T19:41:40.697Z,77.22
2022-12-28T19:44:08.948Z,77.21
2022-12-28T19:46:37.528Z,78.12
2022-12-28T19:49:06.138Z,77.89
2022-12-28T19:51:34.828Z,77.94
2022-12-28T19:54:03.527Z,77.79
2022-12-28T19:56:32.453Z,78.04
2022-12-28T19:59:06.642Z,77.82
2022-12-28T20:01:37.470Z,78.18
2022-12-28T20:04:12.887Z,77.89
2022-12-28T20:06:44.521Z,78.00
2022-12-28T20:09:14.170Z,78.19
2022-12-28T20:11:43.635Z,78.23
2022-12-28T20:14:14.441Z,77.70
2022-12-28T20:16:43.934Z,77.97
2022-12-28T20:19:13.363Z,78.09
2022-12-28T20:21:42.538Z,78.27
2022-12-28T20:24:11.699Z,78.19
2022-12-28T20:26:40.055Z,78.60
2022-12-28T20:29:08.835Z,78.63
2022-12-28T20:31:37.263Z,78.43
2022-12-28T20:34:06.034Z,78.92
2022-12-28T20:36:34.733Z,78.45
2022-12-28T20:39:04.171Z,78.95
2022-12-28T20:41:52.101Z,79.02
2022-12-28T20:44:30.723Z,78.76
2022-12-28T20:47:00.467Z,79.27
2022-12-28T20:49:30.030Z,79.30
2022-12-28T20:51:58.313Z,79.89
2022-12-28T20:54:26.883Z,79.43
2022-12-28T20:56:56.242Z,80.03
2022-12-28T20:59:26.189Z,79.58
2022-12-28T21:01:54.924Z,80.03
2022-12-28T21:04:25.165Z,79.61
2022-12-28T21:06:54.705Z,80.12
2022-12-28T21:09:23.423Z,79.74
2022-12-28T21:11:51.626Z,80.08
2022-12-28T21:14:20.251Z,80.13
2022-12-28T21:16:48.998Z,80.00
2022-12-28T21:19:17.896Z,79.62
2022-12-28T21:21:48.592Z,80.19
2022-12-28T21:24:17.175Z,80.03
2022-12-28T21:26:45.702Z,80.11
2022-12-28T21:29:13.735Z,79.92
2022-12-28T21:31:41.836Z,80.10
2022-12-28T21:34:10.370Z,80.76
2022-12-28T21:36:38.769Z,80.27
2022-12-28T21:39:06.781Z,80.39
2022-12-28T21:41:50.292Z,80.00
2022-12-28T21:44:24.234Z,80.31
2022-12-28T21:46:53.699Z,80.39
2022-12-28T21:49:21.768Z,80.42
2022-12-28T21:51:50.440Z,80.77
2022-12-28T21:54:20.959Z,80.40
2022-12-28T21:59:24.468Z,80.55
2022-12-28T22:02:12.064Z,80.49
2022-12-28T22:05:03.068Z,80.66
2022-12-28T22:07:34.714Z,81.26
2022-12-28T22:10:21.151Z,82.06
2022-12-28T22:12:49.188Z,82.09
2022-12-28T22:15:38.469Z,82.15
2022-12-28T22:21:09.160Z,81.36
2022-12-28T22:23:37.041Z,81.52
2022-12-28T22:26:05.181Z,80.85
2022-12-28T22:28:33.525Z,81.08
2022-12-28T22:31:08.691Z,80.37
2022-12-28T22:33:36.723Z,80.16
2022-12-28T22:36:16.588Z,80.41
2022-12-28T22:38:45.433Z,80.63
2022-12-28T22:41:13.749Z,81.10
2022-12-28T22:43:42.488Z,80.92
2022-12-28T22:46:12.157Z,81.29
2022-12-28T22:48:40.158Z,81.47
2022-12-28T22:51:10.694Z,81.42
2022-12-28T22:53:39.904Z,81.09
2022-12-28T22:56:11.540Z,80.90
2022-12-28T22:58:39.473Z,80.85
2022-12-28T23:01:12.282Z,80.61
2022-12-28T23:03:42.303Z,80.41
2022-12-28T23:06:14.535Z,80.32
2022-12-28T23:08:42.917Z,79.80
2022-12-28T23:11:32.473Z,79.69
2022-12-28T23:14:21.418Z,79.67
2022-12-28T23:16:49.996Z,79.95
2022-12-28T23:19:36.436Z,79.84
2022-12-28T23:22:24.122Z,79.18
2022-12-28T23:25:10.856Z,79.08
2022-12-28T23:27:43.469Z,79.39
2022-12-28T23:30:17.848Z,79.29
2022-12-28T23:32:47.250Z,78.74
2022-12-28T23:35:16.189Z,78.49
2022-12-28T23:37:44.486Z,79.22
2022-12-28T23:40:14.820Z,79.12
2022-12-28T23:42:44.483Z,79.14
2022-12-28T23:45:14.840Z,78.25
2022-12-28T23:47:44.134Z,78.79
2022-12-28T23:50:12.701Z,77.89
2022-12-28T23:52:41.102Z,78.90
2022-12-28T23:55:10.244Z,78.38
2022-12-28T23:57:38.342Z,79.72
